createdAt,value
2022-10-15T00:00:00.248Z,99
2022-10-15T00:05:00.248Z,99
2022-10-15T00:10:00.213Z,99
2022-10-15T00:15:00.222Z,99
2022-10-15T00:20:00.261Z,99
2022-10-15T00:25:00.259Z,99
2022-10-15T00:30:00.242Z,99
2022-10-15T00:35:00.282Z,99
2022-10-15T00:40:00.267Z,99
2022-10-15T00:45:00.234Z,99
2022-10-15T00:50:00.228Z,99
2022-10-15T00:55:00.228Z,99
2022-10-15T01:00:00.312Z,99
2022-10-15T01:05:00.272Z,99
2022-10-15T01:10:00.261Z,99
2022-10-15T01:15:00.216Z,99
2022-10-15T01:20:00.271Z,99
2022-10-15T01:25:00.208Z,99
2022-10-15T01:30:00.374Z,99
2022-10-15T01:35:00.295Z,99
2022-10-15T01:40:00.268Z,99
2022-10-15T01:45:00.228Z,99
2022-10-15T01:50:00.213Z,99
2022-10-15T01:55:00.232Z,99
2022-10-15T02:00:00.272Z,99
2022-10-15T02:05:00.233Z,99
2022-10-15T02:10:00.241Z,99
2022-10-15T02:15:00.212Z,99
2022-10-15T02:20:00.510Z,99
2022-10-15T02:25:00.222Z,99
2022-10-15T02:30:00.240Z,99
2022-10-15T02:35:00.227Z,99
2022-10-15T02:40:00.308Z,99
2022-10-15T02:45:00.237Z,99
2022-10-15T02:50:00.249Z,99
2022-10-15T02:55:00.267Z,99
2022-10-15T03:00:00.348Z,99
2022-10-15T03:05:00.227Z,99
2022-10-15T03:10:00.234Z,99
2022-10-15T03:15:00.243Z,99
2022-10-15T03:20:00.219Z,99
2022-10-15T03:25:00.230Z,99
2022-10-15T03:30:00.278Z,99
2022-10-15T03:35:00.246Z,99
2022-10-15T03:40:00.295Z,99
2022-10-15T03:45:00.243Z,99
2022-10-15T03:50:00.245Z,99
2022-10-15T03:55:00.275Z,99
2022-10-15T04:00:00.286Z,99
2022-10-15T04:05:00.246Z,99
2022-10-15T04:10:00.235Z,99
2022-10-15T04:15:00.250Z,99
2022-10-15T04:20:00.232Z,99
2022-10-15T04:25:00.304Z,99
2022-10-15T04:30:00.249Z,99
2022-10-15T04:35:00.321Z,99
2022-10-15T04:40:00.237Z,99
2022-10-15T04:45:00.616Z,99
2022-10-15T04:50:00.279Z,99
2022-10-15T04:55:00.233Z,99
2022-10-15T05:00:00.279Z,99
2022-10-15T05:05:00.227Z,99
2022-10-15T05:10:00.224Z,99
2022-10-15T05:15:00.283Z,99
2022-10-15T05:20:00.238Z,99
2022-10-15T05:25:00.234Z,99
2022-10-15T05:30:00.244Z,99
2022-10-15T05:35:00.191Z,99
2022-10-15T05:40:00.217Z,99
2022-10-15T05:45:00.238Z,99
2022-10-15T05:50:00.233Z,99
2022-10-15T05:55:00.242Z,99
2022-10-15T06:00:00.351Z,99
2022-10-15T06:05:00.288Z,99
2022-10-15T06:10:00.270Z,99
2022-10-15T06:15:00.255Z,99
2022-10-15T06:20:00.271Z,99
2022-10-15T06:25:00.274Z,99
2022-10-15T06:30:00.266Z,99
2022-10-15T06:35:00.260Z,99
2022-10-15T06:40:00.254Z,99
2022-10-15T06:45:00.231Z,99
2022-10-15T06:50:00.256Z,99
2022-10-15T06:55:00.264Z,99
2022-10-15T07:00:00.311Z,99
2022-10-15T07:05:00.269Z,99
2022-10-15T07:10:00.257Z,99
2022-10-15T07:15:00.255Z,99
2022-10-15T07:20:00.262Z,99
2022-10-15T07:25:00.258Z,99
2022-10-15T07:30:00.335Z,99
2022-10-15T07:35:00.276Z,99
2022-10-15T07:40:00.259Z,98
2022-10-15T07:45:00.273Z,98
2022-10-15T07:50:00.282Z,98
2022-10-15T07:55:00.283Z,98
2022-10-15T08:00:00.324Z,98
2022-10-15T08:05:00.790Z,98
2022-10-15T08:10:00.266Z,97
2022-10-15T08:15:00.456Z,97
2022-10-15T08:20:00.258Z,96
2022-10-15T08:25:00.338Z,96
2022-10-15T08:30:00.335Z,96
2022-10-15T08:35:00.261Z,96
2022-10-15T08:40:00.265Z,96
2022-10-15T08:45:00.275Z,96
2022-10-15T08:50:00.299Z,96
2022-10-15T08:55:00.272Z,95
2022-10-15T09:00:00.347Z,93
2022-10-15T09:05:00.355Z,93
2022-10-15T09:10:00.322Z,92
2022-10-15T09:15:00.314Z,92
2022-10-15T09:20:00.505Z,92
2022-10-15T09:25:00.362Z,93
2022-10-15T09:30:00.580Z,92
2022-10-15T09:35:00.583Z,91
2022-10-15T09:40:00.408Z,91
2022-10-15T09:45:00.444Z,89
2022-10-15T09:50:00.448Z,89
2022-10-15T09:55:05.410Z,88
2022-10-15T10:00:00.395Z,88
2022-10-15T10:05:01.565Z,87
2022-10-15T10:10:00.291Z,88
2022-10-15T10:15:00.279Z,88
2022-10-15T10:20:00.307Z,87
2022-10-15T10:25:00.344Z,88
2022-10-15T10:30:00.274Z,89
2022-10-15T10:35:00.282Z,90
2022-10-15T10:40:00.356Z,90
2022-10-15T10:45:00.285Z,92
2022-10-15T10:50:00.244Z,92
2022-10-15T10:55:00.278Z,93
2022-10-15T11:00:00.473Z,94
2022-10-15T11:05:00.301Z,94
2022-10-15T11:10:00.287Z,95
2022-10-15T11:15:00.273Z,95
2022-10-15T11:20:21.440Z,96
2022-10-15T11:25:07.133Z,96
2022-10-15T11:30:00.325Z,96
2022-10-15T11:35:00.252Z,97
2022-10-15T11:40:00.284Z,97
2022-10-15T11:45:00.285Z,97
2022-10-15T11:50:00.290Z,97
2022-10-15T11:55:00.306Z,97
2022-10-15T12:00:00.289Z,97
2022-10-15T12:05:00.269Z,97
2022-10-15T12:10:00.321Z,97
2022-10-15T12:15:00.248Z,97
2022-10-15T12:20:00.274Z,97
2022-10-15T12:25:00.326Z,97
2022-10-15T12:30:00.347Z,97
2022-10-15T12:35:00.266Z,97
2022-10-15T12:40:00.282Z,97
2022-10-15T12:45:00.352Z,97
2022-10-15T12:50:00.263Z,97
2022-10-15T12:55:02.643Z,97
2022-10-15T13:00:00.367Z,97
2022-10-15T13:05:00.281Z,97
2022-10-15T13:10:00.273Z,97
2022-10-15T13:15:00.252Z,97
2022-10-15T13:20:00.273Z,96
2022-10-15T13:25:00.272Z,96
2022-10-15T13:30:00.503Z,96
2022-10-15T13:35:00.272Z,96
2022-10-15T13:40:03.240Z,96
2022-10-15T13:45:00.274Z,95
2022-10-15T13:50:00.288Z,95
2022-10-15T13:55:00.276Z,94
2022-10-15T14:00:00.367Z,94
2022-10-15T14:05:00.387Z,93
2022-10-15T14:10:00.356Z,93
2022-10-15T14:15:00.339Z,93
2022-10-15T14:25:00.420Z,93
2022-10-15T14:30:00.374Z,93
2022-10-15T14:35:00.369Z,92
2022-10-15T14:40:00.370Z,93
2022-10-15T14:45:00.374Z,93
2022-10-15T14:50:00.335Z,93
2022-10-15T14:55:00.301Z,93
2022-10-15T15:00:00.407Z,93
2022-10-15T15:05:00.273Z,93
2022-10-15T15:10:00.281Z,93
2022-10-15T15:15:00.269Z,92
2022-10-15T15:20:00.359Z,91
2022-10-15T15:25:00.310Z,91
2022-10-15T15:30:00.281Z,90
2022-10-15T15:35:00.288Z,90
2022-10-15T15:40:00.278Z,90
2022-10-15T15:45:00.306Z,89
2022-10-15T15:50:00.268Z,89
2022-10-15T15:55:00.288Z,89
2022-10-15T16:00:00.433Z,90
2022-10-15T16:05:00.306Z,90
2022-10-15T16:10:00.240Z,90
2022-10-15T16:15:00.312Z,89
2022-10-15T16:20:00.285Z,87
2022-10-15T16:25:00.297Z,87
2022-10-15T16:30:00.363Z,88
2022-10-15T16:35:00.405Z,88
2022-10-15T16:40:00.281Z,88
2022-10-15T16:45:00.309Z,89
2022-10-15T16:50:00.275Z,89
2022-10-15T16:55:00.262Z,90
2022-10-15T17:00:00.350Z,91
2022-10-15T17:05:00.310Z,91
2022-10-15T17:10:00.693Z,91
2022-10-15T17:15:00.279Z,91
2022-10-15T17:20:00.391Z,91
2022-10-15T17:25:00.289Z,92
2022-10-15T17:30:00.430Z,92
2022-10-15T17:35:03.853Z,93
2022-10-15T17:40:00.528Z,93
2022-10-15T17:45:00.310Z,94
2022-10-15T17:50:00.412Z,94
2022-10-15T17:55:00.291Z,94
2022-10-15T18:00:00.445Z,94
2022-10-15T18:05:00.452Z,94
2022-10-15T18:10:00.299Z,93
2022-10-15T18:15:00.285Z,93
2022-10-15T18:20:00.278Z,93
2022-10-15T18:25:00.270Z,93
2022-10-15T18:30:00.279Z,93
2022-10-15T18:35:00.278Z,93
2022-10-15T18:40:00.339Z,93
2022-10-15T18:45:00.313Z,94
2022-10-15T18:50:00.282Z,94
2022-10-15T18:55:00.288Z,93
2022-10-15T19:00:00.307Z,93
2022-10-15T19:05:00.295Z,94
2022-10-15T19:10:00.274Z,94
2022-10-15T19:15:00.240Z,94
2022-10-15T19:20:00.369Z,94
2022-10-15T19:25:00.356Z,94
2022-10-15T19:30:00.448Z,94
2022-10-15T19:35:00.319Z,93
2022-10-15T19:40:00.362Z,93
2022-10-15T19:45:00.291Z,93
2022-10-15T19:50:00.378Z,92
2022-10-15T19:55:00.344Z,92
2022-10-15T20:00:00.354Z,92
2022-10-15T20:05:00.284Z,92
2022-10-15T20:10:00.394Z,92
2022-10-15T20:15:01.470Z,92
2022-10-15T20:20:00.289Z,92
2022-10-15T20:25:01.383Z,91
2022-10-15T20:30:00.617Z,91
2022-10-15T20:35:00.280Z,91
2022-10-15T20:55:00.375Z,89
2022-10-15T21:00:00.419Z,88
2022-10-15T21:05:00.728Z,87
2022-10-15T21:10:00.718Z,87
2022-10-15T21:15:00.815Z,86
2022-10-15T21:20:00.362Z,86
2022-10-15T21:25:00.672Z,85
2022-10-15T21:30:01.136Z,85
2022-10-15T21:35:00.490Z,85
2022-10-15T21:40:00.420Z,85
2022-10-15T21:45:00.515Z,86
2022-10-15T21:50:00.309Z,87
2022-10-15T21:55:00.300Z,87
2022-10-15T22:00:00.387Z,88
2022-10-15T22:05:00.498Z,88
2022-10-15T22:10:00.883Z,88
2022-10-15T22:15:00.768Z,88
2022-10-15T22:20:00.564Z,88
2022-10-15T22:25:00.282Z,87
2022-10-15T22:30:00.353Z,86
2022-10-15T22:35:00.296Z,85
2022-10-15T22:40:00.291Z,85
2022-10-15T22:45:00.313Z,86
2022-10-15T22:55:00.307Z,84
2022-10-15T23:00:00.320Z,85
2022-10-15T23:05:00.309Z,85
2022-10-15T23:10:00.279Z,85
2022-10-15T23:15:00.280Z,85
2022-10-15T23:20:00.309Z,84
2022-10-15T23:25:00.297Z,84
2022-10-15T23:30:14.763Z,84
2022-10-15T23:35:00.289Z,84
2022-10-15T23:40:00.362Z,84
2022-10-15T23:45:00.325Z,85
2022-10-15T23:50:00.284Z,85
2022-10-15T23:55:00.440Z,85
